createdAt,value
2023-02-13T00:01:00.189Z,36.17
2023-02-13T00:04:01.858Z,36.97
2023-02-13T00:07:03.927Z,36.53
2023-02-13T00:10:06.020Z,35.10
2023-02-13T00:13:07.640Z,36.83
2023-02-13T00:16:09.724Z,35.67
2023-02-13T00:19:11.424Z,36.67
2023-02-13T00:22:13.083Z,35.60
2023-02-13T00:25:14.700Z,36.10
2023-02-13T00:28:16.348Z,38.50
2023-02-13T00:31:19.636Z,40.80
2023-02-13T00:34:22.425Z,35.53
2023-02-13T00:37:24.719Z,34.60
2023-02-13T00:40:27.153Z,32.47
2023-02-13T00:43:28.800Z,33.50
2023-02-13T00:46:31.633Z,32.57
2023-02-13T00:49:33.318Z,35.77
2023-02-13T00:52:36.403Z,35.60
2023-02-13T00:55:38.100Z,33.40
2023-02-13T00:58:39.747Z,36.70
2023-02-13T01:01:41.569Z,34.43
2023-02-13T01:04:43.235Z,38.97
2023-02-13T01:07:44.790Z,39.07
2023-02-13T01:10:50.266Z,37.47
2023-02-13T01:13:51.917Z,37.57
2023-02-13T01:16:55.340Z,37.30
2023-02-13T01:19:57.027Z,33.27
2023-02-13T01:22:58.896Z,36.13
2023-02-13T01:26:00.916Z,34.37
2023-02-13T01:29:02.642Z,33.67
2023-02-13T01:32:05.305Z,34.50
2023-02-13T01:35:07.407Z,35.60
2023-02-13T01:38:09.050Z,36.20
2023-02-13T01:41:11.184Z,33.13
2023-02-13T01:44:36.319Z,32.60
2023-02-13T01:47:41.369Z,30.93
2023-02-13T01:50:42.954Z,33.70
2023-02-13T01:53:49.888Z,31.53
2023-02-13T01:56:55.280Z,30.70
2023-02-13T02:00:01.948Z,32.10
2023-02-13T02:03:12.256Z,33.80
2023-02-13T02:06:34.577Z,37.00
2023-02-13T02:09:39.271Z,36.47
2023-02-13T02:12:47.748Z,36.70
2023-02-13T02:15:53.100Z,33.20
2023-02-13T02:18:55.444Z,31.47
2023-02-13T02:21:57.139Z,32.17
2023-02-13T02:25:10.808Z,33.07
2023-02-13T02:28:31.358Z,34.50
2023-02-13T02:31:54.498Z,33.13
2023-02-13T02:34:59.733Z,31.97
2023-02-13T02:38:21.649Z,34.20
2023-02-13T02:41:42.812Z,33.73
2023-02-13T02:44:52.063Z,31.57
2023-02-13T02:48:26.117Z,32.53
2023-02-13T02:51:38.424Z,31.33
2023-02-13T02:54:58.941Z,29.07
2023-02-13T02:58:25.514Z,30.73
2023-02-13T03:01:51.410Z,30.77
2023-02-13T03:05:12.907Z,28.73
2023-02-13T03:08:15.102Z,31.27
2023-02-13T03:11:35.393Z,29.00
2023-02-13T03:14:37.300Z,28.97
2023-02-13T03:17:57.460Z,28.73
2023-02-13T03:21:25.060Z,29.90
2023-02-13T03:24:39.082Z,28.67
2023-02-13T03:28:02.458Z,29.97
2023-02-13T03:31:10.390Z,31.93
2023-02-13T03:34:18.101Z,31.43
2023-02-13T03:37:45.139Z,32.10
2023-02-13T03:41:10.585Z,31.93
2023-02-13T03:44:12.315Z,31.47
2023-02-13T03:47:14.375Z,30.47
2023-02-13T03:50:19.805Z,33.50
2023-02-13T03:53:21.553Z,35.33
2023-02-13T03:56:42.030Z,32.13
2023-02-13T03:59:43.862Z,30.03
2023-02-13T04:02:52.625Z,33.23
2023-02-13T04:06:16.992Z,34.00
2023-02-13T04:09:19.118Z,32.80
2023-02-13T04:12:43.240Z,31.90
2023-02-13T04:15:59.907Z,25.40
2023-02-13T04:19:01.903Z,34.37
2023-02-13T04:22:03.778Z,31.40
2023-02-13T04:25:05.799Z,29.87
2023-02-13T04:28:09.856Z,29.50
2023-02-13T04:31:17.960Z,30.93
2023-02-13T04:34:19.976Z,27.10
2023-02-13T04:37:21.590Z,28.33
2023-02-13T04:40:23.203Z,31.37
2023-02-13T04:43:25.419Z,29.03
2023-02-13T04:46:26.996Z,27.97
2023-02-13T04:49:28.740Z,28.53
2023-02-13T04:52:30.394Z,27.07
2023-02-13T04:55:32.079Z,29.80
2023-02-13T04:58:33.744Z,30.40
2023-02-13T05:01:35.420Z,31.20
2023-02-13T05:04:37.152Z,28.03
2023-02-13T05:07:38.836Z,31.70
2023-02-13T05:10:40.499Z,32.17
2023-02-13T05:13:42.154Z,30.63
2023-02-13T05:16:43.912Z,24.90
2023-02-13T05:19:45.499Z,28.57
2023-02-13T05:23:15.169Z,29.53
2023-02-13T05:26:17.032Z,29.80
2023-02-13T05:29:18.708Z,32.97
2023-02-13T05:32:20.402Z,30.87
2023-02-13T05:35:22.436Z,33.60
2023-02-13T05:38:25.054Z,31.30
2023-02-13T05:41:27.003Z,35.90
2023-02-13T05:44:28.642Z,31.27
2023-02-13T05:47:30.295Z,24.90
2023-02-13T05:50:31.979Z,28.00
2023-02-13T05:53:36.751Z,44.30
2023-02-13T05:56:39.492Z,31.03
2023-02-13T05:59:41.032Z,24.43
2023-02-13T06:02:42.865Z,33.47
2023-02-13T06:05:44.635Z,37.83
2023-02-13T06:08:46.292Z,39.50
2023-02-13T06:11:47.947Z,45.73
2023-02-13T06:14:49.590Z,42.43
2023-02-13T06:17:51.228Z,30.60
2023-02-13T06:20:52.859Z,34.80
2023-02-13T06:23:54.465Z,25.80
2023-02-13T06:26:56.097Z,23.20
2023-02-13T06:29:57.749Z,25.67
2023-02-13T06:32:59.499Z,25.97
2023-02-13T06:36:01.151Z,22.77
2023-02-13T06:39:02.816Z,28.50
2023-02-13T06:42:04.486Z,27.40
2023-02-13T06:45:06.431Z,26.23
2023-02-13T06:48:08.312Z,31.80
2023-02-13T06:51:09.974Z,31.67
2023-02-13T06:54:11.555Z,33.63
2023-02-13T06:57:13.212Z,32.10
2023-02-13T07:00:15.770Z,28.97
2023-02-13T07:03:17.767Z,27.17
2023-02-13T07:06:20.238Z,29.40
2023-02-13T07:09:21.902Z,32.87
2023-02-13T07:12:23.531Z,36.40
2023-02-13T07:15:25.151Z,31.60
2023-02-13T07:18:26.985Z,38.73
2023-02-13T07:21:28.620Z,84.67
2023-02-13T07:24:30.185Z,57.43
2023-02-13T07:27:31.814Z,34.43
2023-02-13T07:30:34.224Z,42.67
2023-02-13T07:33:36.230Z,41.77
2023-02-13T07:36:37.915Z,36.17
2023-02-13T07:39:39.639Z,34.43
2023-02-13T07:42:41.312Z,48.07
2023-02-13T07:45:43.025Z,50.20
2023-02-13T07:48:44.676Z,43.20
2023-02-13T07:51:46.304Z,44.83
2023-02-13T07:54:48.164Z,46.00
2023-02-13T07:57:50.271Z,40.53
2023-02-13T08:00:52.015Z,37.53
2023-02-13T08:03:53.775Z,37.60
2023-02-13T08:06:55.505Z,39.97
2023-02-13T08:10:15.710Z,39.37
2023-02-13T08:13:17.581Z,40.33
2023-02-13T08:16:19.354Z,34.47
2023-02-13T08:19:21.000Z,28.07
2023-02-13T08:22:22.681Z,33.53
2023-02-13T08:25:24.308Z,31.27
2023-02-13T08:28:26.026Z,27.70
2023-02-13T08:31:27.800Z,30.40
2023-02-13T08:34:29.499Z,31.07
2023-02-13T08:37:31.122Z,27.40
2023-02-13T08:40:32.993Z,30.17
2023-02-13T08:43:34.640Z,30.90
2023-02-13T08:46:36.367Z,47.00
2023-02-13T08:49:38.009Z,70.20
2023-02-13T08:52:39.680Z,37.80
2023-02-13T08:55:41.387Z,40.63
2023-02-13T08:58:43.026Z,58.53
2023-02-13T09:01:44.947Z,53.37
2023-02-13T09:04:46.593Z,261.37
2023-02-13T09:07:48.234Z,33.57
2023-02-13T09:10:55.381Z,22.73
2023-02-13T09:13:57.036Z,17.73
2023-02-13T09:16:58.656Z,18.13
2023-02-13T09:20:00.306Z,17.07
2023-02-13T09:23:04.525Z,17.73
2023-02-13T09:26:07.911Z,23.50
2023-02-13T09:29:09.529Z,26.57
2023-02-13T09:32:11.299Z,26.73
2023-02-13T09:35:15.022Z,19.90
2023-02-13T09:38:16.629Z,24.83
2023-02-13T09:41:38.211Z,22.77
2023-02-13T09:44:43.492Z,19.50
2023-02-13T09:47:45.302Z,20.10
2023-02-13T09:50:47.015Z,20.70
2023-02-13T09:53:56.817Z,20.40
2023-02-13T09:57:05.381Z,19.00
2023-02-13T10:00:13.197Z,17.63
2023-02-13T10:03:14.847Z,18.37
2023-02-13T10:06:31.345Z,20.13
2023-02-13T10:09:39.065Z,17.20
2023-02-13T10:12:54.824Z,19.27
2023-02-13T10:16:09.728Z,18.27
2023-02-13T10:19:14.462Z,18.97
2023-02-13T10:22:20.562Z,18.90
2023-02-13T10:25:29.914Z,21.23
2023-02-13T10:28:40.779Z,19.73
2023-02-13T10:31:44.908Z,20.20
2023-02-13T10:34:47.189Z,19.70
2023-02-13T10:37:51.441Z,21.60
2023-02-13T10:41:02.255Z,17.73
2023-02-13T10:44:11.028Z,16.73
2023-02-13T10:47:18.657Z,17.03
2023-02-13T10:50:28.264Z,17.80
2023-02-13T10:53:45.317Z,21.43
2023-02-13T10:56:54.227Z,19.50
2023-02-13T11:00:18.583Z,19.77
2023-02-13T11:03:24.646Z,16.10
2023-02-13T11:06:26.390Z,16.37
2023-02-13T11:09:28.717Z,17.70
2023-02-13T11:12:31.966Z,19.73
2023-02-13T11:15:33.663Z,15.00
2023-02-13T11:18:37.713Z,13.93
2023-02-13T11:21:40.267Z,15.40
2023-02-13T11:24:50.113Z,14.73
2023-02-13T11:27:54.885Z,14.70
2023-02-13T11:31:11.260Z,16.67
2023-02-13T11:34:22.157Z,16.30
2023-02-13T11:37:23.833Z,16.40
2023-02-13T11:40:30.800Z,16.33
2023-02-13T11:43:37.478Z,18.07
2023-02-13T11:46:49.806Z,15.93
2023-02-13T11:49:51.464Z,16.03
2023-02-13T11:52:56.332Z,15.33
2023-02-13T11:56:14.493Z,16.03
2023-02-13T11:59:16.137Z,18.53
2023-02-13T12:02:19.609Z,18.30
2023-02-13T12:05:22.780Z,18.27
2023-02-13T12:08:24.390Z,16.37
2023-02-13T12:11:39.243Z,14.23
2023-02-13T12:14:43.269Z,17.83
2023-02-13T12:17:46.156Z,17.70
2023-02-13T12:21:01.174Z,22.13
2023-02-13T12:24:21.466Z,15.67
2023-02-13T12:27:25.934Z,15.83
2023-02-13T12:30:30.594Z,17.63
2023-02-13T12:33:51.701Z,19.80
2023-02-13T12:37:12.037Z,16.20
2023-02-13T12:40:24.695Z,17.10
2023-02-13T12:43:47.048Z,13.70
2023-02-13T12:46:52.847Z,16.00
2023-02-13T12:49:54.618Z,20.13
2023-02-13T12:53:03.156Z,21.73
2023-02-13T12:56:09.947Z,19.80
2023-02-13T12:59:14.640Z,20.63
2023-02-13T13:02:39.053Z,16.20
2023-02-13T13:06:08.700Z,17.03
2023-02-13T13:09:12.406Z,17.47
2023-02-13T13:12:17.083Z,21.23
2023-02-13T13:15:24.939Z,20.80
2023-02-13T13:18:45.250Z,20.40
2023-02-13T13:21:50.143Z,20.43
2023-02-13T13:24:54.837Z,21.70
2023-02-13T13:28:00.548Z,20.83
2023-02-13T13:31:03.304Z,23.90
2023-02-13T13:34:07.628Z,21.93
2023-02-13T13:37:18.449Z,21.53
2023-02-13T13:40:28.426Z,20.90
2023-02-13T13:43:37.911Z,22.43
2023-02-13T13:46:58.148Z,24.43
2023-02-13T13:50:00.908Z,24.10
2023-02-13T13:53:07.852Z,21.37
2023-02-13T13:56:09.643Z,22.57
2023-02-13T13:59:18.454Z,21.07
2023-02-13T14:02:20.184Z,24.10
2023-02-13T14:05:26.609Z,20.10
2023-02-13T14:08:37.366Z,20.73
2023-02-13T14:11:40.393Z,20.67
2023-02-13T14:14:42.094Z,20.90
2023-02-13T14:17:46.775Z,25.50
2023-02-13T14:20:51.632Z,23.07
2023-02-13T14:23:53.698Z,26.33
2023-02-13T14:27:05.089Z,25.50
2023-02-13T14:30:25.863Z,18.90
2023-02-13T14:33:30.005Z,24.07
2023-02-13T14:36:33.783Z,21.80
2023-02-13T14:39:36.023Z,21.53
2023-02-13T14:42:38.172Z,25.77
2023-02-13T14:45:57.356Z,20.13
2023-02-13T14:49:04.345Z,20.17
2023-02-13T14:52:16.899Z,21.03
2023-02-13T14:55:21.371Z,27.17
2023-02-13T14:58:32.486Z,28.40
2023-02-13T15:01:37.325Z,30.77
2023-02-13T15:04:41.736Z,25.10
2023-02-13T15:07:50.863Z,28.87
2023-02-13T15:10:53.831Z,63.73
2023-02-13T15:13:55.593Z,35.17
2023-02-13T15:17:06.293Z,32.37
2023-02-13T15:20:13.905Z,36.37
2023-02-13T15:23:23.148Z,58.87
2023-02-13T15:26:27.968Z,51.23
2023-02-13T15:29:43.969Z,53.50
2023-02-13T15:32:55.626Z,47.43
2023-02-13T15:35:58.672Z,44.93
2023-02-13T15:39:01.146Z,46.73
2023-02-13T15:42:03.134Z,44.27
2023-02-13T15:45:05.322Z,45.87
2023-02-13T15:48:06.967Z,44.10
2023-02-13T15:51:08.610Z,41.73
2023-02-13T15:54:26.719Z,44.43
2023-02-13T15:57:28.652Z,76.93
2023-02-13T16:00:34.543Z,73.73
2023-02-13T16:03:36.902Z,62.83
2023-02-13T16:06:38.910Z,65.23
2023-02-13T16:09:40.794Z,70.07
2023-02-13T16:12:46.963Z,72.63
2023-02-13T16:15:48.709Z,82.93
2023-02-13T16:18:50.599Z,74.50
2023-02-13T16:21:53.253Z,64.80
2023-02-13T16:24:58.854Z,62.53
2023-02-13T16:28:12.025Z,69.13
2023-02-13T16:31:15.860Z,72.00
2023-02-13T16:34:24.344Z,80.83
2023-02-13T16:37:31.256Z,80.70
2023-02-13T16:40:40.444Z,98.67
2023-02-13T16:43:42.072Z,77.20
2023-02-13T16:46:57.124Z,78.37
2023-02-13T16:49:58.847Z,90.93
2023-02-13T16:53:02.442Z,86.17
2023-02-13T16:56:13.376Z,73.17
2023-02-13T16:59:21.462Z,53.00
2023-02-13T17:02:37.329Z,54.27
2023-02-13T17:05:38.952Z,47.40
2023-02-13T17:08:40.631Z,40.60
2023-02-13T17:11:42.248Z,50.57
2023-02-13T17:14:43.940Z,61.33
2023-02-13T17:17:46.023Z,48.87
2023-02-13T17:20:47.826Z,49.30
2023-02-13T17:23:49.577Z,41.87
2023-02-13T17:26:51.188Z,43.13
2023-02-13T17:29:53.009Z,49.67
2023-02-13T17:32:58.440Z,47.20
2023-02-13T17:36:00.328Z,46.47
2023-02-13T17:39:02.002Z,46.13
2023-02-13T17:42:06.191Z,54.03
2023-02-13T17:45:08.138Z,57.73
2023-02-13T17:48:09.845Z,60.87
2023-02-13T17:51:14.855Z,63.40
2023-02-13T17:54:16.601Z,68.90
2023-02-13T17:57:18.929Z,63.47
2023-02-13T18:00:21.269Z,66.07
2023-02-13T18:03:23.042Z,64.17
2023-02-13T18:06:27.533Z,69.00
2023-02-13T18:09:29.155Z,49.53
2023-02-13T18:12:30.827Z,38.50
2023-02-13T18:15:33.877Z,48.57
2023-02-13T18:18:35.570Z,36.93
2023-02-13T18:21:37.260Z,41.43
2023-02-13T18:24:40.150Z,42.87
2023-02-13T18:27:41.788Z,44.77
2023-02-13T18:30:43.692Z,44.53
2023-02-13T18:33:45.953Z,37.70
2023-02-13T18:36:47.912Z,35.27
2023-02-13T18:39:49.586Z,39.77
2023-02-13T18:42:52.447Z,39.67
2023-02-13T18:45:54.277Z,48.43
2023-02-13T18:48:56.084Z,56.10
2023-02-13T18:51:58.256Z,58.80
2023-02-13T18:55:00.104Z,62.27
2023-02-13T18:58:02.731Z,60.20
2023-02-13T19:01:08.851Z,65.07
2023-02-13T19:04:10.887Z,63.67
2023-02-13T19:07:12.599Z,61.23
2023-02-13T19:10:15.702Z,64.97
2023-02-13T19:13:17.316Z,61.90
2023-02-13T19:16:19.298Z,65.13
2023-02-13T19:19:21.059Z,61.27
2023-02-13T19:22:22.639Z,60.80
2023-02-13T19:25:24.404Z,60.80
2023-02-13T19:28:25.995Z,57.50
2023-02-13T19:31:29.107Z,66.60
2023-02-13T19:34:30.780Z,62.80
2023-02-13T19:37:43.091Z,46.40
2023-02-13T19:40:46.131Z,44.27
2023-02-13T19:43:51.049Z,45.13
2023-02-13T19:46:52.878Z,35.37
2023-02-13T19:49:54.557Z,41.13
2023-02-13T19:52:56.300Z,43.20
2023-02-13T19:55:58.468Z,36.50
2023-02-13T19:59:00.163Z,36.17
2023-02-13T20:02:02.060Z,34.30
2023-02-13T20:05:07.062Z,33.77
2023-02-13T20:08:08.737Z,40.67
2023-02-13T20:11:11.144Z,41.63
2023-02-13T20:14:14.944Z,45.17
2023-02-13T20:17:16.847Z,34.50
2023-02-13T20:20:18.707Z,32.57
2023-02-13T20:23:21.116Z,26.10
2023-02-13T20:26:22.764Z,28.33
2023-02-13T20:29:24.433Z,29.20
2023-02-13T20:32:26.093Z,30.77
2023-02-13T20:35:27.725Z,34.17
2023-02-13T20:38:29.426Z,41.07
2023-02-13T20:41:32.495Z,33.40
2023-02-13T20:44:34.274Z,29.10
2023-02-13T20:47:35.923Z,30.10
2023-02-13T20:50:37.533Z,27.50
2023-02-13T20:53:39.512Z,25.23
2023-02-13T20:56:41.156Z,28.33
2023-02-13T20:59:43.146Z,24.33
2023-02-13T21:02:44.810Z,27.53
2023-02-13T21:05:46.558Z,28.10
2023-02-13T21:08:48.519Z,28.33
2023-02-13T21:11:50.510Z,23.57
2023-02-13T21:14:52.126Z,28.23
2023-02-13T21:17:53.746Z,19.67
2023-02-13T21:20:55.882Z,25.67
2023-02-13T21:23:59.112Z,22.97
2023-02-13T21:27:00.865Z,23.80
2023-02-13T21:30:02.556Z,22.10
2023-02-13T21:33:04.227Z,21.47
2023-02-13T21:36:07.376Z,33.47
2023-02-13T21:39:09.713Z,28.87
2023-02-13T21:42:11.268Z,34.57
2023-02-13T21:45:12.896Z,32.83
2023-02-13T21:48:14.620Z,27.80
2023-02-13T21:51:17.755Z,24.23
2023-02-13T21:54:19.408Z,27.23
2023-02-13T21:57:21.041Z,27.77
2023-02-13T22:00:22.703Z,31.90
2023-02-13T22:03:24.367Z,29.10
2023-02-13T22:06:26.164Z,28.67
2023-02-13T22:09:27.964Z,28.77
2023-02-13T22:12:30.337Z,31.60
2023-02-13T22:15:32.133Z,24.43
2023-02-13T22:18:34.740Z,35.30
2023-02-13T22:21:36.774Z,39.80
2023-02-13T22:24:38.449Z,36.93
2023-02-13T22:27:40.170Z,36.90
2023-02-13T22:30:42.849Z,36.30
2023-02-13T22:33:47.710Z,36.00
2023-02-13T22:36:51.541Z,36.30
2023-02-13T22:39:53.218Z,40.80
2023-02-13T22:42:54.834Z,35.57
2023-02-13T22:45:56.410Z,36.20
2023-02-13T22:48:58.436Z,35.30
2023-02-13T22:52:00.133Z,36.87
2023-02-13T22:55:01.785Z,40.03
2023-02-13T22:58:03.336Z,37.70
2023-02-13T23:01:15.326Z,38.23
2023-02-13T23:04:16.964Z,38.97
2023-02-13T23:07:18.691Z,41.03
2023-02-13T23:10:20.411Z,38.70
2023-02-13T23:13:21.990Z,37.87
2023-02-13T23:16:23.667Z,36.80
2023-02-13T23:19:27.363Z,35.17
2023-02-13T23:22:29.090Z,35.57
2023-02-13T23:25:30.699Z,33.93
2023-02-13T23:28:32.237Z,33.50
2023-02-13T23:31:33.988Z,29.73
2023-02-13T23:34:36.532Z,29.47
2023-02-13T23:37:38.224Z,27.33
2023-02-13T23:40:39.807Z,28.27
2023-02-13T23:43:41.400Z,22.07
2023-02-13T23:46:43.082Z,19.67
2023-02-13T23:49:44.675Z,21.53
2023-02-13T23:52:46.288Z,26.60
2023-02-13T23:55:48.525Z,27.83
2023-02-13T23:58:50.139Z,28.67
